Time;durP1;ratioP1;P1;durP2;ratioP2;P2;SDS_P1;SDS_P2;PMS_P1;PMS_P2;Temp;Humidity;BMP_temperature;BMP_pressure;BME280_temperature;BME280_humidity;BME280_pressure;Samples;Min_cycle;Max_cycle;Signal;HPM_P1;HPM_P2
2022/07/26 00:00:18;;;;;;;12.23;2.50;;;18.50;99.90;;;;;;5015998;28;20513;-69
2022/07/26 00:02:44;;;;;;;10.88;2.75;;;18.40;99.90;;;;;;5015980;28;20056;-69
2022/07/26 00:05:10;;;;;;;12.88;2.50;;;18.40;99.90;;;;;;5016276;28;20080;-69
2022/07/26 00:07:35;;;;;;;7.32;2.10;;;18.40;99.90;;;;;;5015931;28;20052;-69
2022/07/26 00:10:04;;;;;;;10.52;2.92;;;18.40;99.90;;;;;;5015950;28;20429;-69
2022/07/26 00:12:29;;;;;;;11.43;2.22;;;18.30;99.90;;;;;;5015896;28;20115;-69
2022/07/26 00:14:55;;;;;;;11.90;2.42;;;18.30;99.90;;;;;;4999382;28;20049;-69
2022/07/26 00:17:21;;;;;;;8.23;1.92;;;18.30;99.90;;;;;;4999398;28;20050;-69
2022/07/26 00:19:46;;;;;;;10.93;2.50;;;18.20;99.90;;;;;;5015031;28;20049;-69
2022/07/26 00:24:56;;;;;;;11.32;3.10;;;18.20;99.90;;;;;;5015563;28;20046;-69
2022/07/26 00:27:21;;;;;;;20.17;3.20;;;18.20;99.90;;;;;;4999438;28;20042;-69
2022/07/26 00:29:47;;;;;;;11.13;2.90;;;18.20;99.90;;;;;;5015691;28;20465;-69
2022/07/26 00:32:12;;;;;;;10.43;2.28;;;18.20;99.90;;;;;;5015289;28;20104;-69
2022/07/26 00:34:38;;;;;;;7.25;2.75;;;18.20;99.90;;;;;;5015546;28;20049;-69
2022/07/26 00:37:03;;;;;;;14.70;2.63;;;18.20;99.90;;;;;;5015936;28;20049;-68
2022/07/26 00:39:29;;;;;;;10.32;2.55;;;18.20;99.90;;;;;;5015390;28;20053;-69
2022/07/26 00:41:55;;;;;;;7.57;2.85;;;18.20;99.90;;;;;;5015841;28;20383;-69
2022/07/26 00:44:21;;;;;;;8.55;2.65;;;18.20;99.90;;;;;;5015180;28;20426;-69
2022/07/26 00:46:47;;;;;;;10.50;2.10;;;18.10;99.90;;;;;;5015374;28;20129;-69
2022/07/26 00:49:12;;;;;;;9.93;2.80;;;18.10;99.90;;;;;;5015238;28;20045;-69
2022/07/26 00:51:38;;;;;;;9.35;2.78;;;18.00;99.90;;;;;;5015812;28;20034;-69
2022/07/26 00:54:04;;;;;;;14.20;2.83;;;18.00;99.90;;;;;;5015125;28;20049;-70
2022/07/26 00:56:32;;;;;;;10.00;2.42;;;18.10;99.90;;;;;;5014837;28;20497;-69
2022/07/26 00:58:58;;;;;;;8.00;2.30;;;18.10;99.90;;;;;;5014830;28;20520;-69
2022/07/26 01:01:23;;;;;;;7.18;2.30;;;18.10;99.90;;;;;;5014793;28;20138;-69
2022/07/26 01:03:51;;;;;;;13.18;3.05;;;18.10;99.90;;;;;;4998204;28;20046;-69
2022/07/26 01:06:18;;;;;;;19.25;3.17;;;18.10;99.90;;;;;;5015629;28;20049;-69
2022/07/26 01:08:44;;;;;;;9.85;2.90;;;18.10;99.90;;;;;;5015037;28;20172;-69
2022/07/26 01:11:09;;;;;;;9.68;2.63;;;18.10;99.90;;;;;;5014815;28;20100;-69
2022/07/26 01:13:35;;;;;;;13.07;2.35;;;18.20;99.90;;;;;;5015047;28;20111;-69
2022/07/26 01:16:01;;;;;;;15.77;3.10;;;18.20;99.90;;;;;;5014917;28;20053;-69
2022/07/26 01:18:27;;;;;;;8.38;2.10;;;18.10;99.90;;;;;;5014978;28;20053;-69
2022/07/26 01:20:53;;;;;;;12.70;3.13;;;18.00;99.90;;;;;;5015109;28;20045;-69
2022/07/26 01:23:19;;;;;;;19.50;2.63;;;18.20;99.90;;;;;;4997881;28;20053;-69
2022/07/26 01:25:45;;;;;;;11.00;2.72;;;18.30;99.90;;;;;;5014955;28;20359;-69
2022/07/26 01:28:10;;;;;;;9.20;2.88;;;18.30;99.90;;;;;;5014883;28;20436;-69
2022/07/26 01:30:36;;;;;;;8.70;2.53;;;18.30;99.90;;;;;;5016414;28;20046;-69
2022/07/26 01:33:02;;;;;;;9.75;2.50;;;18.40;99.90;;;;;;5018732;28;20048;-69
2022/07/26 01:35:28;;;;;;;11.38;2.08;;;18.40;99.90;;;;;;5002013;28;20089;-69
2022/07/26 01:37:53;;;;;;;16.50;2.42;;;18.40;99.90;;;;;;5018372;28;20367;-69
2022/07/26 01:40:19;;;;;;;10.27;2.03;;;18.40;99.90;;;;;;5001474;28;20046;-69
2022/07/26 01:42:45;;;;;;;12.35;3.33;;;18.40;99.90;;;;;;5018994;28;20069;-69
2022/07/26 01:45:11;;;;;;;12.63;3.33;;;18.40;99.90;;;;;;5019138;28;20042;-70
2022/07/26 01:47:38;;;;;;;9.18;2.22;;;18.40;99.90;;;;;;5019084;28;20057;-70
2022/07/26 01:50:06;;;;;;;17.52;2.83;;;18.40;99.90;;;;;;5018329;28;20474;-69
2022/07/26 01:52:32;;;;;;;9.25;2.38;;;18.40;99.90;;;;;;5018367;28;20060;-69
2022/07/26 01:54:57;;;;;;;12.00;2.17;;;18.40;99.90;;;;;;5019130;28;20050;-69
2022/07/26 01:57:23;;;;;;;7.70;2.35;;;18.40;99.90;;;;;;5018354;28;20060;-69
2022/07/26 01:59:49;;;;;;;12.32;2.38;;;18.40;99.90;;;;;;5018367;28;20124;-69
2022/07/26 02:02:14;;;;;;;9.57;2.85;;;18.40;99.90;;;;;;5018242;28;20384;-69
2022/07/26 02:04:58;;;;;;;9.95;2.40;;;18.50;99.90;;;;;;5018277;28;20449;-69
2022/07/26 02:07:32;;;;;;;10.45;2.30;;;18.40;99.90;;;;;;5018154;28;20081;-69
2022/07/26 02:09:58;;;;;;;9.75;2.78;;;18.40;99.90;;;;;;5018600;28;20120;-69
2022/07/26 02:12:24;;;;;;;8.02;2.47;;;18.40;99.90;;;;;;5017906;28;20041;-69
2022/07/26 02:14:50;;;;;;;8.43;2.20;;;18.40;99.90;;;;;;5018033;28;20390;-69
2022/07/26 02:17:17;;;;;;;10.68;2.22;;;18.20;99.90;;;;;;5018564;28;20049;-69
2022/07/26 02:19:42;;;;;;;11.70;2.75;;;18.30;99.90;;;;;;5018446;28;20362;-69
2022/07/26 02:22:08;;;;;;;6.85;2.10;;;18.30;99.90;;;;;;5018654;28;20125;-69
2022/07/26 02:24:33;;;;;;;8.18;1.90;;;18.30;99.90;;;;;;5017516;28;20050;-69
2022/07/26 02:27:00;;;;;;;6.45;1.90;;;18.20;99.90;;;;;;5017657;28;20060;-69
2022/07/26 02:29:26;;;;;;;8.23;2.55;;;18.30;99.90;;;;;;5017870;28;20064;-69
2022/07/26 02:31:53;;;;;;;9.95;2.38;;;18.30;99.90;;;;;;5017881;28;20371;-69
2022/07/26 02:34:18;;;;;;;6.10;2.40;;;18.30;99.90;;;;;;5017595;28;20045;-69
2022/07/26 02:36:45;;;;;;;9.07;1.90;;;18.30;99.90;;;;;;5018108;28;20049;-69
2022/07/26 02:39:11;;;;;;;20.48;2.80;;;18.20;99.90;;;;;;5018183;28;20052;-69
2022/07/26 02:41:36;;;;;;;4.57;2.15;;;18.30;99.90;;;;;;5016718;28;20038;-69
2022/07/26 02:44:02;;;;;;;5.03;1.90;;;18.30;99.90;;;;;;5017681;28;20414;-69
2022/07/26 02:46:28;;;;;;;5.32;1.90;;;18.20;99.90;;;;;;5017593;28;20096;-69
2022/07/26 02:48:54;;;;;;;5.72;2.03;;;18.20;99.90;;;;;;5017543;28;20049;-69
2022/07/26 02:51:19;;;;;;;6.70;2.10;;;18.30;99.90;;;;;;5017921;28;20049;-69
2022/07/26 02:53:45;;;;;;;5.57;2.22;;;18.30;99.90;;;;;;5017028;28;20085;-69
2022/07/26 02:56:10;;;;;;;4.93;2.15;;;18.20;99.90;;;;;;5017876;28;20124;-69
2022/07/26 02:58:36;;;;;;;7.70;1.77;;;18.30;99.90;;;;;;5017222;28;20513;-69
2022/07/26 03:01:02;;;;;;;6.25;1.60;;;18.30;99.90;;;;;;5017253;28;20041;-70
2022/07/26 03:03:28;;;;;;;5.68;1.52;;;18.20;99.90;;;;;;5017065;28;20042;-69
2022/07/26 03:05:54;;;;;;;4.28;1.33;;;18.10;99.90;;;;;;5017354;28;20116;-70
2022/07/26 03:08:19;;;;;;;2.55;1.40;;;18.00;99.90;;;;;;5017424;28;20045;-69
2022/07/26 03:10:45;;;;;;;3.47;1.20;;;18.00;99.90;;;;;;5017303;28;20056;-69
2022/07/26 03:13:11;;;;;;;3.90;1.50;;;17.90;99.90;;;;;;5016715;28;20522;-69
2022/07/26 03:15:36;;;;;;;4.10;1.60;;;17.90;99.90;;;;;;5016716;28;20394;-69
2022/07/26 03:18:02;;;;;;;6.53;1.30;;;17.70;99.90;;;;;;5016543;28;20100;-69
2022/07/26 03:20:28;;;;;;;3.53;1.10;;;17.80;99.90;;;;;;5016829;28;20128;-69
2022/07/26 03:22:54;;;;;;;3.03;1.00;;;17.70;99.90;;;;;;5016781;28;20042;-69
2022/07/26 03:25:19;;;;;;;3.28;1.20;;;17.70;99.90;;;;;;5016681;28;20351;-69
2022/07/26 03:27:45;;;;;;;4.95;1.33;;;17.70;99.90;;;;;;5016884;28;20348;-69
2022/07/26 03:30:11;;;;;;;3.65;1.20;;;17.70;99.90;;;;;;5017174;28;20065;-69
2022/07/26 03:32:37;;;;;;;2.72;1.50;;;17.60;99.90;;;;;;5016474;28;20446;-69
2022/07/26 03:35:04;;;;;;;3.35;1.40;;;17.60;99.90;;;;;;5017085;28;20050;-69
2022/07/26 03:37:29;;;;;;;3.40;1.33;;;17.60;99.90;;;;;;5016681;28;20096;-69
2022/07/26 03:39:55;;;;;;;3.40;1.38;;;17.50;99.90;;;;;;5016456;28;20046;-69
2022/07/26 03:42:20;;;;;;;2.85;1.27;;;17.60;99.90;;;;;;5016432;28;20048;-69
2022/07/26 03:44:46;;;;;;;4.65;2.15;;;17.50;99.90;;;;;;5016355;28;20459;-69
2022/07/26 03:47:12;;;;;;;4.72;1.60;;;17.50;99.90;;;;;;5016205;28;20057;-69
2022/07/26 03:49:37;;;;;;;8.95;1.38;;;17.50;99.90;;;;;;5016170;28;20057;-70
2022/07/26 03:52:03;;;;;;;3.88;1.67;;;17.40;99.90;;;;;;5016217;28;20129;-69
2022/07/26 03:54:28;;;;;;;10.43;1.80;;;17.40;99.90;;;;;;5016008;28;20081;-69
2022/07/26 03:56:54;;;;;;;3.90;1.58;;;17.40;99.90;;;;;;5016195;28;20045;-69
2022/07/26 03:59:20;;;;;;;4.50;1.63;;;17.40;99.90;;;;;;5016945;28;20038;-69
2022/07/26 04:01:46;;;;;;;2.97;1.60;;;17.40;99.90;;;;;;5131382;22;20144;-69
2022/07/26 04:04:14;;;;;;;10.32;2.05;;;17.40;99.90;;;;;;5015978;28;20037;-69
2022/07/26 04:06:40;;;;;;;3.05;1.23;;;17.40;99.90;;;;;;5016006;28;20096;-68
2022/07/26 04:09:06;;;;;;;2.88;1.40;;;17.30;99.90;;;;;;5015787;28;20482;-69
2022/07/26 04:11:33;;;;;;;3.58;1.48;;;17.30;99.90;;;;;;5016103;28;20053;-69
2022/07/26 04:13:59;;;;;;;7.40;1.65;;;17.20;99.90;;;;;;5015560;28;20037;-69
2022/07/26 04:16:25;;;;;;;6.40;1.70;;;17.30;99.90;;;;;;5016320;28;20069;-69
2022/07/26 04:18:51;;;;;;;5.68;1.67;;;17.30;99.90;;;;;;5016312;28;20060;-68
2022/07/26 04:21:17;;;;;;;3.25;1.08;;;17.30;99.90;;;;;;5016117;28;20468;-69
2022/07/26 04:23:42;;;;;;;6.60;1.58;;;17.30;99.90;;;;;;5015520;28;20362;-69
2022/07/26 04:26:08;;;;;;;5.40;1.60;;;17.30;99.90;;;;;;5015591;28;20055;-69
2022/07/26 04:28:33;;;;;;;5.35;1.17;;;17.30;99.90;;;;;;4999046;28;20374;-69
2022/07/26 04:31:00;;;;;;;14.38;1.83;;;17.30;99.90;;;;;;5015538;28;20037;-69
2022/07/26 04:33:25;;;;;;;4.43;1.20;;;17.40;99.90;;;;;;5015874;28;20050;-69
2022/07/26 04:35:52;;;;;;;4.97;1.70;;;17.40;99.90;;;;;;5015529;28;20120;-69
2022/07/26 04:38:17;;;;;;;6.68;1.33;;;17.40;99.90;;;;;;5015436;28;20085;-69
2022/07/26 04:40:43;;;;;;;3.83;1.30;;;17.60;99.90;;;;;;5015774;28;20093;-69
2022/07/26 04:43:09;;;;;;;6.00;2.17;;;17.50;99.90;;;;;;5015371;28;20041;-69
2022/07/26 04:45:35;;;;;;;8.48;1.80;;;17.50;99.90;;;;;;5015336;28;20050;-70
2022/07/26 04:48:00;;;;;;;5.38;1.10;;;17.60;99.90;;;;;;5015811;28;20045;-69
2022/07/26 04:50:29;;;;;;;4.20;0.80;;;17.60;99.90;;;;;;5015218;28;20068;-69
2022/07/26 04:52:54;;;;;;;3.60;1.02;;;17.60;99.90;;;;;;5015163;28;20127;-69
2022/07/26 04:55:21;;;;;;;4.40;1.00;;;17.70;99.90;;;;;;5015623;28;20518;-69
2022/07/26 04:57:48;;;;;;;4.32;1.35;;;17.60;99.90;;;;;;5015217;28;20056;-69
2022/07/26 05:00:20;;;;;;;3.17;1.02;;;17.60;99.90;;;;;;4997836;28;20046;-69
2022/07/26 05:02:45;;;;;;;1.85;0.70;;;17.60;99.90;;;;;;5015107;28;20058;-68
2022/07/26 05:05:11;;;;;;;4.43;1.30;;;17.50;99.90;;;;;;5014962;28;20475;-69
2022/07/26 05:07:45;;;;;;;7.93;1.48;;;17.60;99.90;;;;;;5015636;28;20038;-69
2022/07/26 05:10:11;;;;;;;2.03;0.90;;;17.60;99.90;;;;;;5015030;28;20056;-69
2022/07/26 05:12:37;;;;;;;6.80;1.35;;;17.60;99.90;;;;;;5014931;28;20096;-69
2022/07/26 05:15:04;;;;;;;5.43;0.93;;;17.60;99.90;;;;;;5014702;28;20045;-69
2022/07/26 05:17:30;;;;;;;2.03;0.85;;;17.60;99.90;;;;;;5014947;28;20133;-69
2022/07/26 05:19:55;;;;;;;4.97;0.90;;;17.50;99.90;;;;;;5015319;28;20069;-69
2022/07/26 05:22:21;;;;;;;4.88;1.13;;;17.60;99.90;;;;;;5014945;28;20073;-69
2022/07/26 05:24:46;;;;;;;2.65;0.77;;;17.50;99.90;;;;;;5015057;28;20045;-69
2022/07/26 05:27:12;;;;;;;2.13;0.60;;;17.50;99.90;;;;;;5014857;28;20054;-69
2022/07/26 05:29:37;;;;;;;4.50;0.70;;;17.40;99.90;;;;;;5014552;28;20046;-69
2022/07/26 05:32:03;;;;;;;7.82;0.90;;;17.50;99.90;;;;;;5015285;28;20467;-69
2022/07/26 05:34:29;;;;;;;3.22;1.02;;;17.50;99.90;;;;;;5014706;28;20056;-69
2022/07/26 05:36:54;;;;;;;3.72;1.08;;;17.60;99.90;;;;;;5014780;28;20058;-69
2022/07/26 05:39:20;;;;;;;1.30;0.60;;;17.60;99.90;;;;;;5014722;28;20104;-69
2022/07/26 05:41:45;;;;;;;1.45;0.60;;;17.60;99.90;;;;;;5014888;28;20056;-69
2022/07/26 05:44:11;;;;;;;4.47;0.93;;;17.70;99.90;;;;;;5014649;28;20088;-69
2022/07/26 05:46:37;;;;;;;4.55;0.80;;;17.70;99.90;;;;;;5015339;28;20138;-69
2022/07/26 05:49:04;;;;;;;3.45;0.65;;;17.70;99.90;;;;;;5014658;28;20045;-68
2022/07/26 05:51:30;;;;;;;7.18;1.25;;;17.60;99.90;;;;;;5015208;28;20089;-69
2022/07/26 05:53:56;;;;;;;3.03;1.27;;;17.40;99.90;;;;;;4997598;28;20064;-69
2022/07/26 05:56:21;;;;;;;2.55;0.60;;;17.30;99.90;;;;;;5014640;28;20357;-69
2022/07/26 05:58:47;;;;;;;3.40;0.60;;;17.10;99.90;;;;;;5014550;28;20100;-69
2022/07/26 06:01:13;;;;;;;3.58;0.70;;;17.10;99.90;;;;;;5014545;28;20042;-69
2022/07/26 06:03:39;;;;;;;2.65;0.65;;;17.00;99.90;;;;;;5014864;28;20060;-68
2022/07/26 06:06:04;;;;;;;3.22;0.60;;;16.90;99.90;;;;;;5014367;28;20041;-69
2022/07/26 06:08:30;;;;;;;2.38;0.90;;;17.10;99.90;;;;;;4997899;28;20196;-69
2022/07/26 06:10:56;;;;;;;4.03;0.57;;;17.10;99.90;;;;;;5014408;28;20045;-68
2022/07/26 06:13:22;;;;;;;4.40;1.25;;;17.10;99.90;;;;;;5014241;28;20139;-69
2022/07/26 06:15:48;;;;;;;4.82;0.80;;;17.30;99.90;;;;;;5014842;28;20053;-69
2022/07/26 06:18:14;;;;;;;2.17;0.85;;;17.40;99.90;;;;;;4999882;28;20176;-69
2022/07/26 06:20:41;;;;;;;3.45;1.10;;;17.50;99.90;;;;;;5018424;28;20125;-69
2022/07/26 06:23:07;;;;;;;2.92;0.45;;;17.60;99.90;;;;;;5001525;28;20064;-69
2022/07/26 06:25:33;;;;;;;3.08;0.75;;;17.70;99.90;;;;;;5017865;28;20371;-69
2022/07/26 06:28:02;;;;;;;1.58;0.70;;;17.90;99.90;;;;;;5017725;28;20049;-69
2022/07/26 06:30:27;;;;;;;2.80;0.70;;;18.10;99.90;;;;;;5018190;28;20111;-69
2022/07/26 06:32:53;;;;;;;2.80;0.70;;;18.40;99.90;;;;;;5017634;28;20042;-69
2022/07/26 06:35:18;;;;;;;2.67;0.60;;;19.00;99.90;;;;;;5017632;28;20053;-69
2022/07/26 06:37:44;;;;;;;2.80;0.80;;;19.30;99.90;;;;;;5017493;28;20133;-70
2022/07/26 06:40:10;;;;;;;3.38;1.42;;;19.30;99.90;;;;;;5018170;28;20049;-69
2022/07/26 06:42:36;;;;;;;3.10;0.70;;;19.10;99.90;;;;;;5017431;28;20052;-69
2022/07/26 06:45:03;;;;;;;2.65;1.10;;;18.90;99.90;;;;;;5017920;28;20104;-69
2022/07/26 06:47:29;;;;;;;4.97;1.00;;;18.70;99.90;;;;;;5017380;28;20038;-69
2022/07/26 06:49:55;;;;;;;5.50;0.80;;;18.40;99.90;;;;;;5017314;28;20108;-69
2022/07/26 06:52:20;;;;;;;3.63;0.77;;;18.40;99.90;;;;;;5017427;28;20042;-69
2022/07/26 06:54:46;;;;;;;4.68;0.73;;;18.30;99.90;;;;;;5017250;28;20133;-69
2022/07/26 06:57:12;;;;;;;4.32;0.80;;;18.20;99.90;;;;;;5017144;28;20046;-69
2022/07/26 06:59:37;;;;;;;5.57;0.80;;;18.00;99.90;;;;;;5017215;28;20041;-69
2022/07/26 07:02:04;;;;;;;2.35;0.95;;;17.80;99.90;;;;;;5016901;28;20060;-69
2022/07/26 07:04:31;;;;;;;4.50;1.00;;;17.60;99.90;;;;;;5017669;28;20127;-69
2022/07/26 07:07:01;;;;;;;3.13;0.80;;;17.60;99.90;;;;;;5017118;28;20120;-69
2022/07/26 07:09:31;;;;;;;2.38;0.82;;;17.70;99.90;;;;;;5016948;28;20505;-69
2022/07/26 07:11:57;;;;;;;5.82;1.35;;;17.70;99.90;;;;;;5017421;28;20056;-69
2022/07/26 07:14:23;;;;;;;2.50;0.60;;;17.80;99.90;;;;;;5016790;28;20136;-70
2022/07/26 07:16:48;;;;;;;5.70;0.90;;;17.90;99.90;;;;;;5016874;28;20135;-69
2022/07/26 07:19:14;;;;;;;6.32;0.88;;;17.80;99.90;;;;;;5016757;28;20084;-69
2022/07/26 07:21:39;;;;;;;2.85;1.02;;;18.00;99.90;;;;;;5016784;28;20061;-69
2022/07/26 07:24:05;;;;;;;5.78;1.52;;;18.20;99.90;;;;;;5016542;28;20478;-69
2022/07/26 07:26:31;;;;;;;4.63;0.98;;;18.80;99.90;;;;;;5016354;28;20124;-69
2022/07/26 07:28:57;;;;;;;4.97;0.80;;;19.10;99.90;;;;;;5016665;28;20038;-69
2022/07/26 07:31:24;;;;;;;3.53;0.80;;;19.20;99.90;;;;;;5016586;28;20116;-69
2022/07/26 07:33:50;;;;;;;5.78;0.80;;;19.30;99.90;;;;;;5016490;28;20042;-68
2022/07/26 07:36:15;;;;;;;5.88;1.17;;;19.60;99.90;;;;;;5017082;28;20406;-69
2022/07/26 07:38:43;;;;;;;5.00;1.00;;;19.60;99.90;;;;;;5016258;28;20061;-69
2022/07/26 07:41:08;;;;;;;2.13;0.52;;;19.70;99.90;;;;;;5016689;28;20060;-69
2022/07/26 07:43:34;;;;;;;3.60;0.52;;;19.40;99.90;;;;;;5016358;28;20425;-70
2022/07/26 07:45:59;;;;;;;2.00;0.80;;;19.30;99.90;;;;;;5016159;28;20049;-69
2022/07/26 07:48:25;;;;;;;2.08;0.70;;;19.30;99.90;;;;;;5016353;28;20124;-69
2022/07/26 07:50:50;;;;;;;6.50;0.70;;;19.30;99.90;;;;;;5016180;28;20052;-69
2022/07/26 07:53:16;;;;;;;4.45;0.73;;;19.50;99.90;;;;;;5016080;28;20050;-69
2022/07/26 07:55:41;;;;;;;2.08;0.70;;;19.60;99.90;;;;;;5016047;28;20045;-69
2022/07/26 07:58:07;;;;;;;5.15;0.63;;;20.00;99.90;;;;;;5016161;28;20050;-69
2022/07/26 08:00:32;;;;;;;2.47;0.98;;;20.50;99.90;;;;;;4999145;28;20148;-70
2022/07/26 08:02:58;;;;;;;3.67;0.70;;;20.90;99.90;;;;;;5015787;28;20057;-69
2022/07/26 08:05:24;;;;;;;6.60;1.20;;;21.00;99.90;;;;;;5016008;28;20477;-70
2022/07/26 08:07:49;;;;;;;3.85;0.82;;;21.40;99.90;;;;;;5016056;28;20049;-69
2022/07/26 08:10:15;;;;;;;5.07;0.63;;;21.20;99.90;;;;;;5015837;28;20382;-69
2022/07/26 08:12:42;;;;;;;2.53;0.70;;;21.10;99.90;;;;;;5016185;28;20125;-70
2022/07/26 08:15:07;;;;;;;2.42;0.82;;;20.80;99.90;;;;;;5016559;28;20338;-70
2022/07/26 08:17:33;;;;;;;5.90;0.80;;;20.60;99.90;;;;;;5016349;28;20129;-69
2022/07/26 08:19:59;;;;;;;4.30;1.15;;;20.30;99.90;;;;;;5015598;28;20060;-69
2022/07/26 08:22:24;;;;;;;3.05;1.13;;;20.00;99.90;;;;;;4998864;28;20042;-69
2022/07/26 08:24:51;;;;;;;4.30;1.15;;;19.70;99.90;;;;;;5015604;28;20041;-69
2022/07/26 08:27:17;;;;;;;6.55;1.00;;;19.60;99.90;;;;;;4998689;28;20480;-69
2022/07/26 08:29:42;;;;;;;2.85;0.70;;;19.60;99.90;;;;;;5015718;28;20046;-69
2022/07/26 08:32:08;;;;;;;3.78;0.80;;;19.60;99.90;;;;;;5015901;28;20053;-69
2022/07/26 08:34:34;;;;;;;2.42;0.73;;;19.60;99.90;;;;;;5015439;28;20410;-69
2022/07/26 08:36:59;;;;;;;2.45;0.93;;;19.70;99.90;;;;;;5015211;28;20046;-69
2022/07/26 08:39:25;;;;;;;4.30;0.70;;;19.80;99.90;;;;;;5014814;28;20037;-69
2022/07/26 08:41:51;;;;;;;2.45;0.73;;;20.10;99.90;;;;;;5015419;28;20053;-69
2022/07/26 08:44:16;;;;;;;2.38;0.82;;;20.30;99.90;;;;;;5015366;28;20084;-69
2022/07/26 08:46:42;;;;;;;3.53;1.15;;;20.40;99.90;;;;;;5015912;28;20336;-69
2022/07/26 08:49:09;;;;;;;2.72;0.70;;;20.40;99.90;;;;;;5015479;28;20060;-69
2022/07/26 08:51:42;;;;;;;3.63;0.80;;;20.50;99.90;;;;;;5015158;28;20053;-69
2022/07/26 08:54:08;;;;;;;4.87;1.07;;;20.80;99.90;;;;;;5015075;28;20050;-69
2022/07/26 08:56:39;;;;;;;6.20;1.08;;;20.70;99.90;;;;;;5015643;28;20425;-69
2022/07/26 08:59:16;;;;;;;2.75;0.52;;;20.80;99.90;;;;;;5015522;28;20060;-69
2022/07/26 09:02:05;;;;;;;4.25;1.00;;;20.90;99.90;;;;;;5015175;28;20354;-70
2022/07/26 09:04:37;;;;;;;2.92;0.60;;;20.70;99.50;;;;;;5015013;28;20089;-70
2022/07/26 09:07:16;;;;;;;5.63;0.90;;;20.50;99.80;;;;;;5015644;28;20112;-69
2022/07/26 09:10:00;;;;;;;5.32;0.90;;;20.10;99.90;;;;;;4998219;28;20140;-69
2022/07/26 09:12:28;;;;;;;7.40;1.75;;;19.90;99.90;;;;;;5015147;28;20077;-69
2022/07/26 09:14:55;;;;;;;4.85;1.48;;;19.70;99.90;;;;;;5014653;28;20076;-69
2022/07/26 09:17:23;;;;;;;4.25;0.98;;;19.50;99.90;;;;;;5015184;28;20073;-69
2022/07/26 09:20:06;;;;;;;5.22;0.88;;;19.40;99.90;;;;;;5014969;28;20100;-70
2022/07/26 09:22:32;;;;;;;2.45;0.85;;;19.30;99.90;;;;;;5014930;28;20042;-69
2022/07/26 09:24:58;;;;;;;3.83;0.88;;;19.40;99.90;;;;;;5014928;28;20052;-70
2022/07/26 09:27:32;;;;;;;6.85;1.00;;;19.60;99.90;;;;;;5014561;28;20100;-69
2022/07/26 09:30:05;;;;;;;4.68;0.82;;;19.90;99.90;;;;;;5015298;28;20057;-69
2022/07/26 09:32:31;;;;;;;5.10;1.50;;;19.70;99.90;;;;;;5014969;28;20041;-69
2022/07/26 09:35:14;;;;;;;5.75;1.58;;;19.60;99.90;;;;;;5014868;28;20108;-69
2022/07/26 09:37:42;;;;;;;4.80;0.90;;;19.20;99.90;;;;;;5014747;28;20083;-69
2022/07/26 09:40:11;;;;;;;4.80;1.52;;;18.70;99.90;;;;;;5014800;28;20057;-69
2022/07/26 09:42:38;;;;;;;5.53;1.20;;;18.70;99.90;;;;;;5015081;28;20044;-69
2022/07/26 09:45:15;;;;;;;5.85;1.42;;;18.70;99.90;;;;;;5015186;28;20447;-69
2022/07/26 09:47:41;;;;;;;7.10;1.38;;;18.80;99.90;;;;;;5014738;28;20042;-70
2022/07/26 09:50:10;;;;;;;6.80;2.00;;;19.10;99.90;;;;;;5014677;28;20413;-69
2022/07/26 09:52:36;;;;;;;6.22;1.10;;;19.70;99.90;;;;;;5017634;28;20466;-69
2022/07/26 09:55:06;;;;;;;7.00;1.45;;;20.00;99.90;;;;;;5019019;28;20195;-69
2022/07/26 09:57:34;;;;;;;6.25;1.10;;;20.10;99.90;;;;;;5018405;28;20049;-69
2022/07/26 10:00:03;;;;;;;8.23;2.20;;;20.10;99.90;;;;;;5018280;28;20057;-68
2022/07/26 10:02:28;;;;;;;7.50;1.30;;;20.00;99.90;;;;;;5018569;28;20462;-69
2022/07/26 10:04:54;;;;;;;10.30;2.13;;;20.10;99.90;;;;;;5018250;28;20060;-69
2022/07/26 10:07:20;;;;;;;6.57;1.98;;;20.10;99.90;;;;;;5018953;28;20362;-70
2022/07/26 10:09:57;;;;;;;10.05;1.80;;;20.20;99.90;;;;;;5018170;28;20042;-70
2022/07/26 10:12:27;;;;;;;5.32;2.03;;;20.50;99.90;;;;;;5018404;28;20091;-69
2022/07/26 10:14:54;;;;;;;3.55;1.23;;;20.60;99.90;;;;;;5017819;28;20046;-69
2022/07/26 10:17:28;;;;;;;4.97;1.42;;;20.70;99.90;;;;;;5018026;28;20128;-68
2022/07/26 10:20:00;;;;;;;11.60;2.13;;;20.60;99.90;;;;;;5018005;28;20053;-69
2022/07/26 10:22:55;;;;;;;12.95;2.00;;;20.60;99.90;;;;;;5017958;28;20104;-69
2022/07/26 10:25:20;;;;;;;8.80;1.45;;;20.70;99.90;;;;;;4997052;28;20068;-69
2022/07/26 10:27:48;;;;;;;6.97;2.22;;;20.60;99.70;;;;;;5017730;28;20057;-69
2022/07/26 10:30:17;;;;;;;9.77;1.73;;;20.70;99.90;;;;;;5018302;28;20398;-69
2022/07/26 10:33:08;;;;;;;6.35;1.52;;;20.80;98.90;;;;;;5018407;28;20448;-69
2022/07/26 10:35:41;;;;;;;7.93;1.98;;;20.80;99.10;;;;;;5017757;28;20042;-69
2022/07/26 10:38:11;;;;;;;4.45;1.02;;;20.90;99.60;;;;;;5017636;28;20524;-69
2022/07/26 10:40:53;;;;;;;5.35;1.30;;;21.30;99.70;;;;;;5017586;28;20046;-70
2022/07/26 10:43:19;;;;;;;4.93;0.97;;;21.50;99.30;;;;;;5017947;28;20060;-70
2022/07/26 10:45:44;;;;;;;4.53;1.38;;;21.50;97.90;;;;;;5017535;28;20591;-69
2022/07/26 10:48:11;;;;;;;5.68;1.45;;;21.40;98.20;;;;;;5017722;28;20045;-69
2022/07/26 10:50:38;;;;;;;5.03;1.33;;;21.30;97.20;;;;;;5017130;28;20049;-70
2022/07/26 10:53:04;;;;;;;8.23;1.20;;;21.10;97.70;;;;;;5017244;28;20570;-69
2022/07/26 10:55:30;;;;;;;4.07;1.27;;;21.10;98.30;;;;;;5017484;28;20120;-69
2022/07/26 10:57:55;;;;;;;6.22;1.20;;;21.30;99.10;;;;;;5017105;28;20045;-71
2022/07/26 11:00:25;;;;;;;6.30;1.30;;;21.50;98.50;;;;;;5017517;28;20042;-71
2022/07/26 11:02:57;;;;;;;9.50;1.80;;;21.80;98.00;;;;;;4998886;28;20050;-69
2022/07/26 11:05:28;;;;;;;4.95;1.73;;;22.00;98.30;;;;;;5017168;28;20133;-70
2022/07/26 11:08:05;;;;;;;6.97;1.38;;;22.10;96.70;;;;;;5016925;28;20455;-70
2022/07/26 11:10:45;;;;;;;3.63;0.95;;;22.40;98.20;;;;;;5017747;28;20443;-70
2022/07/26 11:13:17;;;;;;;8.23;1.33;;;22.60;96.30;;;;;;5016863;28;20477;-71
2022/07/26 11:15:44;;;;;;;9.10;2.33;;;22.40;96.60;;;;;;5016687;28;20042;-71
2022/07/26 11:18:22;;;;;;;5.90;1.30;;;21.90;96.20;;;;;;5016917;28;20077;-69
2022/07/26 11:20:53;;;;;;;6.05;1.30;;;21.70;96.00;;;;;;5017277;28;20041;-69
2022/07/26 11:23:41;;;;;;;8.85;1.30;;;21.50;96.00;;;;;;5016972;28;20045;-70
2022/07/26 11:26:21;;;;;;;6.20;1.42;;;21.50;97.00;;;;;;5016752;28;20053;-69
2022/07/26 11:28:54;;;;;;;5.03;1.02;;;21.80;97.10;;;;;;5016807;28;20057;-69
2022/07/26 11:31:22;;;;;;;;;;;22.20;96.00;;;;;;5017122;28;20112;-70
2022/07/26 11:33:49;;;;;;;3.80;1.20;;;22.40;95.00;;;;;;5017055;28;19921;-69
2022/07/26 11:36:17;;;;;;;3.38;1.08;;;22.50;95.10;;;;;;5016778;28;20057;-70
2022/07/26 11:38:48;;;;;;;5.30;0.88;;;22.70;95.00;;;;;;5016413;28;20050;-70
2022/07/26 11:41:21;;;;;;;5.88;1.35;;;22.90;94.80;;;;;;5016762;28;20052;-70
2022/07/26 11:43:48;;;;;;;4.35;0.85;;;22.80;93.70;;;;;;5016499;28;20046;-70
2022/07/26 11:46:14;;;;;;;3.78;0.82;;;22.90;94.80;;;;;;5016451;28;20052;-71
2022/07/26 11:48:48;;;;;;;3.35;0.90;;;23.00;94.60;;;;;;5016499;28;20429;-70
2022/07/26 11:51:20;;;;;;;5.47;1.02;;;23.00;93.60;;;;;;5016073;28;20046;-71
2022/07/26 11:53:46;;;;;;;5.38;1.20;;;23.00;94.30;;;;;;5016821;28;20049;-70
2022/07/26 11:56:16;;;;;;;4.00;0.95;;;22.80;93.30;;;;;;5016187;28;20038;-70
2022/07/26 11:58:45;;;;;;;4.82;1.08;;;22.70;92.90;;;;;;5016305;28;20367;-70
2022/07/26 12:01:12;;;;;;;2.95;0.85;;;22.60;92.60;;;;;;5016725;28;20080;-70
2022/07/26 12:03:40;;;;;;;2.83;0.60;;;22.40;93.00;;;;;;5015654;28;20112;-70
2022/07/26 12:06:09;;;;;;;4.40;0.85;;;22.60;93.40;;;;;;5016060;28;20056;-69
2022/07/26 12:08:54;;;;;;;6.70;0.93;;;22.70;93.60;;;;;;5015790;28;20124;-70
2022/07/26 12:11:21;;;;;;;5.75;1.67;;;22.60;93.20;;;;;;5015985;28;20042;-70
2022/07/26 12:14:01;;;;;;;2.90;0.90;;;22.40;92.90;;;;;;5016396;28;20120;-70
2022/07/26 12:16:32;;;;;;;2.65;0.75;;;22.40;93.20;;;;;;5015497;28;20374;-71
2022/07/26 12:18:58;;;;;;;5.25;0.88;;;22.20;92.70;;;;;;5015867;28;20041;-70
2022/07/26 12:21:40;;;;;;;3.00;0.90;;;22.20;94.00;;;;;;5015749;28;20037;-70
2022/07/26 12:24:06;;;;;;;2.73;1.13;;;22.10;93.60;;;;;;5015936;28;20050;-71
2022/07/26 12:26:32;;;;;;;2.30;0.80;;;22.20;93.70;;;;;;5015611;28;20050;-69
2022/07/26 12:29:23;;;;;;;2.80;0.98;;;22.30;93.70;;;;;;5015606;28;20042;-70
2022/07/26 12:31:46;;;;;;;2.28;0.60;;;22.40;93.20;;;;;;5015901;28;20552;-70
2022/07/26 12:34:18;;;;;;;4.30;0.85;;;22.50;93.30;;;;;;5015519;28;20121;-70
2022/07/26 12:36:44;;;;;;;4.40;0.93;;;22.50;93.00;;;;;;5015566;28;20049;-69
2022/07/26 12:39:20;;;;;;;1.98;0.98;;;22.40;93.10;;;;;;5015262;28;20378;-70
2022/07/26 12:41:49;;;;;;;2.65;1.05;;;22.40;92.40;;;;;;5015920;28;20060;-70
2022/07/26 12:44:15;;;;;;;1.75;0.70;;;22.40;93.20;;;;;;5015782;28;20046;-70
2022/07/26 12:46:43;;;;;;;3.67;1.08;;;22.60;92.80;;;;;;5015400;28;20191;-71
2022/07/26 12:49:09;;;;;;;3.97;1.00;;;22.70;92.70;;;;;;4998489;28;20041;-70